Columbus Metropolitan Airport
KCSG : now visible

Airfield :











YOU CAN JOIN US ON...

 
LOGIN :

Register | Disclaimer

   EN    FR    IT 

 









Legend :    VFR   Marginal VFR   IFR   Intensive IFR   Very Intensive IFR
Visi :
Ceiling :
>= 8 km
>= 3000ft
5 to 8 km
1000 to 3000 ft
1500m to 5 km
500 to 1000 ft
800 to 1500m
200 to 500 ft
< 800m
< 200 ft
Symbols :   Thunderstorms  Fog  Heavy snow  Heavy precipitations  Wind > 20 kt






- Airport Elevation : 397 ft
- IATA code : CSG


KCSG - Columbus Metropolitan

CURRENT METAR :
  • 240451Z AUTO 08005KT 10SM BKN075 OVC100 11/03 A3018 RMK AO2 SLP217 T01110033 401830044

EXPIRED METARs :
  • 240351Z AUTO 10004KT 10SM FEW080 OVC100 12/03 A3017 RMK AO2 SLP217 T01170033
  • 240251Z AUTO 00000KT 10SM OVC100 12/03 A3017 RMK AO2 SLP215 T01220028 51008

TAF KCSG
Valid from the 24 at 00:00 until the 25 at 00:00 UTC


232338Z 2400/2424 12005KT P6SM SCT100
FM240400 11005KT P6SM BKN080
FM241400 12007KT P6SM BKN050 OVC070
FM242100 13006KT P6SM BKN035 OVC070
KZTL FIR / North America



MET'MAP, your aeronautical weather chart ! - Copyright ORBIFLY December 2007 - Disclaimer

ORBIFLY MET'MAP TEAM :

Programming & Development : Alexandra Zaïnal
Concept & original design : Baudouin d'Aumeries
Assistance for programming : Marc-Olivier Méhu
Technical & hardware support : Manuel Goepfert

Contact : metmap@orbifly.com




SOURCES & CREDITS :

   NOAA       Earth
Advisory